sensor_id;sensor_type;location;lat;lon;timestamp;P1;durP1;ratioP1;P2;durP2;ratioP2
31782;SDS011;18351;47.560;9.708;2022-09-27T00:00:16;4.40;;;2.85;;
31782;SDS011;18351;47.560;9.708;2022-09-27T00:02:42;3.83;;;2.90;;
31782;SDS011;18351;47.560;9.708;2022-09-27T00:05:09;3.88;;;2.58;;
31782;SDS011;18351;47.560;9.708;2022-09-27T00:07:34;4.18;;;2.92;;
31782;SDS011;18351;47.560;9.708;2022-09-27T00:10:00;3.55;;;3.00;;
31782;SDS011;18351;47.560;9.708;2022-09-27T00:12:26;6.70;;;3.00;;
31782;SDS011;18351;47.560;9.708;2022-09-27T00:14:52;6.15;;;3.55;;
31782;SDS011;18351;47.560;9.708;2022-09-27T00:17:17;4.38;;;3.17;;
31782;SDS011;18351;47.560;9.708;2022-09-27T00:19:43;3.60;;;3.00;;
31782;SDS011;18351;47.560;9.708;2022-09-27T00:22:08;4.03;;;2.83;;
31782;SDS011;18351;47.560;9.708;2022-09-27T00:24:34;3.35;;;2.72;;
31782;SDS011;18351;47.560;9.708;2022-09-27T00:27:00;5.65;;;3.20;;
31782;SDS011;18351;47.560;9.708;2022-09-27T00:29:25;5.15;;;3.47;;
31782;SDS011;18351;47.560;9.708;2022-09-27T00:31:51;5.25;;;3.13;;
31782;SDS011;18351;47.560;9.708;2022-09-27T00:34:17;3.78;;;2.90;;
31782;SDS011;18351;47.560;9.708;2022-09-27T00:36:45;5.18;;;3.00;;
31782;SDS011;18351;47.560;9.708;2022-09-27T00:39:11;7.15;;;3.88;;
31782;SDS011;18351;47.560;9.708;2022-09-27T00:41:37;5.72;;;3.78;;
31782;SDS011;18351;47.560;9.708;2022-09-27T00:44:54;6.20;;;3.72;;
31782;SDS011;18351;47.560;9.708;2022-09-27T00:46:49;5.07;;;3.13;;
31782;SDS011;18351;47.560;9.708;2022-09-27T00:54:59;3.53;;;2.97;;
31782;SDS011;18351;47.560;9.708;2022-09-27T00:57:30;3.97;;;2.92;;
31782;SDS011;18351;47.560;9.708;2022-09-27T01:00:00;4.47;;;3.25;;
31782;SDS011;18351;47.560;9.708;2022-09-27T01:02:29;3.95;;;3.20;;
31782;SDS011;18351;47.560;9.708;2022-09-27T01:04:56;7.15;;;3.10;;
31782;SDS011;18351;47.560;9.708;2022-09-27T01:07:22;4.80;;;3.53;;
31782;SDS011;18351;47.560;9.708;2022-09-27T01:09:48;5.80;;;3.95;;
31782;SDS011;18351;47.560;9.708;2022-09-27T01:12:22;5.10;;;3.70;;
31782;SDS011;18351;47.560;9.708;2022-09-27T01:25:41;4.68;;;3.65;;
31782;SDS011;18351;47.560;9.708;2022-09-27T01:36:50;4.43;;;3.25;;
31782;SDS011;18351;47.560;9.708;2022-09-27T01:39:21;5.32;;;4.13;;
31782;SDS011;18351;47.560;9.708;2022-09-27T01:42:35;4.72;;;3.88;;
31782;SDS011;18351;47.560;9.708;2022-09-27T01:45:13;8.07;;;3.75;;
31782;SDS011;18351;47.560;9.708;2022-09-27T01:48:00;5.22;;;3.70;;
31782;SDS011;18351;47.560;9.708;2022-09-27T01:50:36;4.75;;;4.03;;
31782;SDS011;18351;47.560;9.708;2022-09-27T01:53:32;5.45;;;3.83;;
31782;SDS011;18351;47.560;9.708;2022-09-27T01:56:02;5.70;;;3.88;;
31782;SDS011;18351;47.560;9.708;2022-09-27T01:58:32;4.82;;;3.53;;
31782;SDS011;18351;47.560;9.708;2022-09-27T02:01:08;5.28;;;4.07;;
31782;SDS011;18351;47.560;9.708;2022-09-27T02:03:36;6.28;;;4.28;;
31782;SDS011;18351;47.560;9.708;2022-09-27T02:06:13;4.72;;;3.70;;
31782;SDS011;18351;47.560;9.708;2022-09-27T02:08:49;3.90;;;3.50;;
31782;SDS011;18351;47.560;9.708;2022-09-27T02:11:24;4.90;;;3.80;;
31782;SDS011;18351;47.560;9.708;2022-09-27T02:16:50;4.15;;;3.33;;
31782;SDS011;18351;47.560;9.708;2022-09-27T02:24:50;3.17;;;2.75;;
31782;SDS011;18351;47.560;9.708;2022-09-27T02:27:21;4.78;;;2.92;;
31782;SDS011;18351;47.560;9.708;2022-09-27T02:29:53;5.60;;;2.95;;
31782;SDS011;18351;47.560;9.708;2022-09-27T02:32:24;4.38;;;3.58;;
31782;SDS011;18351;47.560;9.708;2022-09-27T02:34:51;3.90;;;3.20;;
31782;SDS011;18351;47.560;9.708;2022-09-27T02:37:17;3.88;;;3.25;;
31782;SDS011;18351;47.560;9.708;2022-09-27T02:39:43;3.90;;;3.10;;
31782;SDS011;18351;47.560;9.708;2022-09-27T02:42:09;4.07;;;3.00;;
31782;SDS011;18351;47.560;9.708;2022-09-27T02:44:35;5.60;;;3.55;;
31782;SDS011;18351;47.560;9.708;2022-09-27T02:49:43;5.68;;;3.63;;
31782;SDS011;18351;47.560;9.708;2022-09-27T02:58:19;3.72;;;3.33;;
31782;SDS011;18351;47.560;9.708;2022-09-27T03:01:07;5.20;;;3.15;;
31782;SDS011;18351;47.560;9.708;2022-09-27T03:06:56;4.45;;;3.05;;
31782;SDS011;18351;47.560;9.708;2022-09-27T03:09:24;5.90;;;3.42;;
31782;SDS011;18351;47.560;9.708;2022-09-27T03:11:53;7.95;;;4.15;;
31782;SDS011;18351;47.560;9.708;2022-09-27T03:14:19;7.68;;;5.85;;
31782;SDS011;18351;47.560;9.708;2022-09-27T03:16:45;7.78;;;5.80;;
31782;SDS011;18351;47.560;9.708;2022-09-27T03:19:10;3.78;;;3.22;;
31782;SDS011;18351;47.560;9.708;2022-09-27T03:21:36;4.22;;;2.25;;
31782;SDS011;18351;47.560;9.708;2022-09-27T03:24:02;2.33;;;2.05;;
31782;SDS011;18351;47.560;9.708;2022-09-27T03:37:11;1.70;;;1.58;;
31782;SDS011;18351;47.560;9.708;2022-09-27T03:39:36;2.70;;;1.70;;
31782;SDS011;18351;47.560;9.708;2022-09-27T03:42:02;2.15;;;1.95;;
31782;SDS011;18351;47.560;9.708;2022-09-27T03:44:27;1.80;;;1.70;;
31782;SDS011;18351;47.560;9.708;2022-09-27T03:46:53;2.45;;;1.63;;
31782;SDS011;18351;47.560;9.708;2022-09-27T03:49:18;1.70;;;1.42;;
31782;SDS011;18351;47.560;9.708;2022-09-27T03:51:44;2.00;;;1.58;;
31782;SDS011;18351;47.560;9.708;2022-09-27T03:54:09;2.88;;;1.73;;
31782;SDS011;18351;47.560;9.708;2022-09-27T03:56:35;1.27;;;1.17;;
31782;SDS011;18351;47.560;9.708;2022-09-27T03:59:00;1.58;;;1.25;;
31782;SDS011;18351;47.560;9.708;2022-09-27T04:01:26;1.20;;;1.10;;
31782;SDS011;18351;47.560;9.708;2022-09-27T04:03:52;0.98;;;0.95;;
31782;SDS011;18351;47.560;9.708;2022-09-27T04:06:18;2.35;;;1.20;;
31782;SDS011;18351;47.560;9.708;2022-09-27T04:08:44;1.30;;;1.20;;
31782;SDS011;18351;47.560;9.708;2022-09-27T04:11:11;1.52;;;1.08;;
31782;SDS011;18351;47.560;9.708;2022-09-27T04:13:37;1.63;;;0.90;;
31782;SDS011;18351;47.560;9.708;2022-09-27T04:16:03;1.30;;;1.20;;
31782;SDS011;18351;47.560;9.708;2022-09-27T04:18:29;1.15;;;0.90;;
31782;SDS011;18351;47.560;9.708;2022-09-27T04:20:54;1.25;;;1.00;;
31782;SDS011;18351;47.560;9.708;2022-09-27T04:23:20;1.25;;;0.90;;
31782;SDS011;18351;47.560;9.708;2022-09-27T04:25:46;1.40;;;0.93;;
31782;SDS011;18351;47.560;9.708;2022-09-27T04:28:11;3.85;;;1.10;;
31782;SDS011;18351;47.560;9.708;2022-09-27T04:30:37;1.35;;;1.08;;
31782;SDS011;18351;47.560;9.708;2022-09-27T04:33:03;0.80;;;0.80;;
31782;SDS011;18351;47.560;9.708;2022-09-27T04:35:29;1.10;;;0.90;;
31782;SDS011;18351;47.560;9.708;2022-09-27T04:38:13;1.77;;;1.05;;
31782;SDS011;18351;47.560;9.708;2022-09-27T04:40:39;1.08;;;0.93;;
31782;SDS011;18351;47.560;9.708;2022-09-27T04:43:05;1.40;;;1.00;;
31782;SDS011;18351;47.560;9.708;2022-09-27T04:45:31;3.60;;;1.15;;
31782;SDS011;18351;47.560;9.708;2022-09-27T04:47:57;1.27;;;0.90;;
31782;SDS011;18351;47.560;9.708;2022-09-27T04:50:23;2.42;;;1.02;;
31782;SDS011;18351;47.560;9.708;2022-09-27T04:52:49;2.78;;;1.13;;
31782;SDS011;18351;47.560;9.708;2022-09-27T04:55:18;1.67;;;0.85;;
31782;SDS011;18351;47.560;9.708;2022-09-27T04:57:44;2.63;;;1.00;;
31782;SDS011;18351;47.560;9.708;2022-09-27T05:00:10;2.53;;;1.05;;
31782;SDS011;18351;47.560;9.708;2022-09-27T05:02:37;4.03;;;0.80;;
31782;SDS011;18351;47.560;9.708;2022-09-27T05:05:03;1.50;;;0.90;;
31782;SDS011;18351;47.560;9.708;2022-09-27T05:07:32;2.03;;;0.90;;
31782;SDS011;18351;47.560;9.708;2022-09-27T05:09:58;1.02;;;0.93;;
31782;SDS011;18351;47.560;9.708;2022-09-27T05:12:24;3.13;;;1.05;;
31782;SDS011;18351;47.560;9.708;2022-09-27T05:14:51;1.13;;;1.00;;
31782;SDS011;18351;47.560;9.708;2022-09-27T05:17:17;1.48;;;0.85;;
31782;SDS011;18351;47.560;9.708;2022-09-27T05:19:44;4.55;;;1.15;;
31782;SDS011;18351;47.560;9.708;2022-09-27T05:22:10;4.35;;;1.15;;
31782;SDS011;18351;47.560;9.708;2022-09-27T05:24:35;2.58;;;1.20;;
31782;SDS011;18351;47.560;9.708;2022-09-27T05:27:02;1.42;;;1.05;;
31782;SDS011;18351;47.560;9.708;2022-09-27T05:29:32;4.72;;;1.30;;
31782;SDS011;18351;47.560;9.708;2022-09-27T05:31:59;5.75;;;1.10;;
31782;SDS011;18351;47.560;9.708;2022-09-27T05:34:25;3.85;;;1.40;;
31782;SDS011;18351;47.560;9.708;2022-09-27T05:36:50;2.58;;;1.13;;
31782;SDS011;18351;47.560;9.708;2022-09-27T05:39:16;4.00;;;1.27;;
31782;SDS011;18351;47.560;9.708;2022-09-27T05:41:42;3.92;;;1.20;;
31782;SDS011;18351;47.560;9.708;2022-09-27T05:44:09;4.97;;;1.15;;
31782;SDS011;18351;47.560;9.708;2022-09-27T05:46:34;4.60;;;1.35;;
31782;SDS011;18351;47.560;9.708;2022-09-27T05:49:00;2.60;;;1.33;;
31782;SDS011;18351;47.560;9.708;2022-09-27T05:51:25;4.50;;;2.63;;
31782;SDS011;18351;47.560;9.708;2022-09-27T05:53:52;3.58;;;1.30;;
31782;SDS011;18351;47.560;9.708;2022-09-27T05:56:17;1.65;;;1.02;;
31782;SDS011;18351;47.560;9.708;2022-09-27T05:58:43;2.65;;;1.33;;
31782;SDS011;18351;47.560;9.708;2022-09-27T06:01:09;4.97;;;1.88;;
31782;SDS011;18351;47.560;9.708;2022-09-27T06:03:35;3.97;;;1.42;;
31782;SDS011;18351;47.560;9.708;2022-09-27T06:06:01;3.83;;;1.70;;
31782;SDS011;18351;47.560;9.708;2022-09-27T06:08:31;2.58;;;1.63;;
31782;SDS011;18351;47.560;9.708;2022-09-27T06:11:03;4.53;;;1.40;;
31782;SDS011;18351;47.560;9.708;2022-09-27T06:13:30;2.13;;;1.10;;
31782;SDS011;18351;47.560;9.708;2022-09-27T06:16:03;4.07;;;1.23;;
31782;SDS011;18351;47.560;9.708;2022-09-27T06:18:29;1.80;;;1.00;;
31782;SDS011;18351;47.560;9.708;2022-09-27T06:20:57;4.25;;;1.20;;
31782;SDS011;18351;47.560;9.708;2022-09-27T06:23:24;2.25;;;1.27;;
31782;SDS011;18351;47.560;9.708;2022-09-27T06:25:50;1.70;;;1.00;;
31782;SDS011;18351;47.560;9.708;2022-09-27T06:28:16;2.92;;;1.08;;
31782;SDS011;18351;47.560;9.708;2022-09-27T06:30:43;4.40;;;1.40;;
31782;SDS011;18351;47.560;9.708;2022-09-27T06:33:16;5.88;;;1.50;;
31782;SDS011;18351;47.560;9.708;2022-09-27T06:35:43;3.38;;;1.35;;
31782;SDS011;18351;47.560;9.708;2022-09-27T06:38:10;3.05;;;1.23;;
31782;SDS011;18351;47.560;9.708;2022-09-27T06:40:37;1.65;;;0.82;;
31782;SDS011;18351;47.560;9.708;2022-09-27T06:43:04;1.98;;;1.20;;
31782;SDS011;18351;47.560;9.708;2022-09-27T06:45:33;1.92;;;1.13;;
31782;SDS011;18351;47.560;9.708;2022-09-27T06:48:00;2.65;;;1.00;;
31782;SDS011;18351;47.560;9.708;2022-09-27T06:50:27;5.28;;;1.25;;
31782;SDS011;18351;47.560;9.708;2022-09-27T06:52:54;4.00;;;1.02;;
31782;SDS011;18351;47.560;9.708;2022-09-27T06:55:19;3.63;;;1.27;;
31782;SDS011;18351;47.560;9.708;2022-09-27T06:57:45;2.55;;;1.10;;
31782;SDS011;18351;47.560;9.708;2022-09-27T07:00:30;2.63;;;1.27;;
31782;SDS011;18351;47.560;9.708;2022-09-27T07:02:56;4.65;;;2.15;;
31782;SDS011;18351;47.560;9.708;2022-09-27T07:05:25;2.30;;;1.02;;
31782;SDS011;18351;47.560;9.708;2022-09-27T07:07:55;3.38;;;1.10;;
31782;SDS011;18351;47.560;9.708;2022-09-27T07:10:21;2.67;;;1.48;;
31782;SDS011;18351;47.560;9.708;2022-09-27T07:12:49;2.25;;;1.15;;
31782;SDS011;18351;47.560;9.708;2022-09-27T07:15:17;3.60;;;1.25;;
31782;SDS011;18351;47.560;9.708;2022-09-27T07:17:45;2.35;;;1.02;;
31782;SDS011;18351;47.560;9.708;2022-09-27T07:20:11;3.97;;;1.30;;
31782;SDS011;18351;47.560;9.708;2022-09-27T07:22:39;4.97;;;1.10;;
31782;SDS011;18351;47.560;9.708;2022-09-27T07:25:06;3.50;;;1.15;;
31782;SDS011;18351;47.560;9.708;2022-09-27T07:27:32;5.72;;;1.85;;
31782;SDS011;18351;47.560;9.708;2022-09-27T07:29:59;3.65;;;1.40;;
31782;SDS011;18351;47.560;9.708;2022-09-27T07:32:24;6.22;;;1.70;;
31782;SDS011;18351;47.560;9.708;2022-09-27T07:34:50;2.47;;;1.23;;
31782;SDS011;18351;47.560;9.708;2022-09-27T07:37:15;3.80;;;1.15;;
31782;SDS011;18351;47.560;9.708;2022-09-27T07:39:41;2.38;;;1.10;;
31782;SDS011;18351;47.560;9.708;2022-09-27T07:42:08;2.70;;;1.40;;
31782;SDS011;18351;47.560;9.708;2022-09-27T07:44:34;1.75;;;0.98;;
31782;SDS011;18351;47.560;9.708;2022-09-27T07:46:59;3.85;;;1.67;;
31782;SDS011;18351;47.560;9.708;2022-09-27T07:49:25;1.27;;;0.90;;
31782;SDS011;18351;47.560;9.708;2022-09-27T07:51:51;0.77;;;0.70;;
31782;SDS011;18351;47.560;9.708;2022-09-27T07:54:17;3.97;;;0.93;;
31782;SDS011;18351;47.560;9.708;2022-09-27T07:56:45;1.65;;;0.90;;
31782;SDS011;18351;47.560;9.708;2022-09-27T07:59:11;0.73;;;0.60;;
31782;SDS011;18351;47.560;9.708;2022-09-27T08:01:36;3.25;;;1.30;;
31782;SDS011;18351;47.560;9.708;2022-09-27T08:04:03;1.15;;;0.88;;
31782;SDS011;18351;47.560;9.708;2022-09-27T08:06:29;1.25;;;0.80;;
31782;SDS011;18351;47.560;9.708;2022-09-27T08:08:55;3.05;;;1.00;;
31782;SDS011;18351;47.560;9.708;2022-09-27T08:11:22;1.77;;;1.05;;
31782;SDS011;18351;47.560;9.708;2022-09-27T08:13:48;2.30;;;1.15;;
31782;SDS011;18351;47.560;9.708;2022-09-27T08:16:16;7.65;;;1.30;;
31782;SDS011;18351;47.560;9.708;2022-09-27T08:18:42;2.42;;;1.20;;
31782;SDS011;18351;47.560;9.708;2022-09-27T08:21:08;5.05;;;1.25;;
31782;SDS011;18351;47.560;9.708;2022-09-27T08:23:34;3.63;;;1.10;;
31782;SDS011;18351;47.560;9.708;2022-09-27T08:26:00;2.15;;;0.98;;
31782;SDS011;18351;47.560;9.708;2022-09-27T08:28:29;1.67;;;0.93;;
31782;SDS011;18351;47.560;9.708;2022-09-27T08:30:56;1.88;;;0.80;;
31782;SDS011;18351;47.560;9.708;2022-09-27T08:33:23;2.75;;;1.13;;
31782;SDS011;18351;47.560;9.708;2022-09-27T08:35:49;1.92;;;0.77;;
31782;SDS011;18351;47.560;9.708;2022-09-27T08:38:15;2.55;;;0.90;;
31782;SDS011;18351;47.560;9.708;2022-09-27T08:49:04;2.05;;;1.17;;
31782;SDS011;18351;47.560;9.708;2022-09-27T08:51:34;4.78;;;1.15;;
31782;SDS011;18351;47.560;9.708;2022-09-27T08:54:12;4.57;;;1.88;;
31782;SDS011;18351;47.560;9.708;2022-09-27T08:56:46;4.57;;;1.17;;
31782;SDS011;18351;47.560;9.708;2022-09-27T08:59:16;3.25;;;1.80;;
31782;SDS011;18351;47.560;9.708;2022-09-27T09:01:48;4.10;;;1.00;;
31782;SDS011;18351;47.560;9.708;2022-09-27T09:04:18;1.70;;;1.30;;
31782;SDS011;18351;47.560;9.708;2022-09-27T09:12:43;1.85;;;1.20;;
31782;SDS011;18351;47.560;9.708;2022-09-27T09:15:35;1.92;;;1.33;;
31782;SDS011;18351;47.560;9.708;2022-09-27T09:23:54;2.15;;;1.20;;
31782;SDS011;18351;47.560;9.708;2022-09-27T09:26:32;4.80;;;1.70;;
31782;SDS011;18351;47.560;9.708;2022-09-27T09:32:24;3.88;;;1.42;;
31782;SDS011;18351;47.560;9.708;2022-09-27T09:35:11;2.25;;;1.38;;
31782;SDS011;18351;47.560;9.708;2022-09-27T09:37:56;3.45;;;1.52;;
31782;SDS011;18351;47.560;9.708;2022-09-27T09:40:26;1.67;;;1.30;;
31782;SDS011;18351;47.560;9.708;2022-09-27T09:43:08;4.82;;;1.50;;
31782;SDS011;18351;47.560;9.708;2022-09-27T09:46:02;5.65;;;1.48;;
31782;SDS011;18351;47.560;9.708;2022-09-27T09:51:23;4.38;;;1.52;;
31782;SDS011;18351;47.560;9.708;2022-09-27T09:56:25;5.07;;;1.70;;
31782;SDS011;18351;47.560;9.708;2022-09-27T09:59:00;5.68;;;1.30;;
31782;SDS011;18351;47.560;9.708;2022-09-27T10:01:32;2.80;;;1.42;;
31782;SDS011;18351;47.560;9.708;2022-09-27T10:03:58;9.25;;;1.67;;
31782;SDS011;18351;47.560;9.708;2022-09-27T10:06:24;3.63;;;1.38;;
31782;SDS011;18351;47.560;9.708;2022-09-27T10:08:52;4.95;;;1.30;;
31782;SDS011;18351;47.560;9.708;2022-09-27T10:11:24;2.75;;;1.42;;
31782;SDS011;18351;47.560;9.708;2022-09-27T10:13:52;5.43;;;1.50;;
31782;SDS011;18351;47.560;9.708;2022-09-27T10:16:20;4.80;;;1.33;;
31782;SDS011;18351;47.560;9.708;2022-09-27T10:18:46;5.65;;;1.73;;
31782;SDS011;18351;47.560;9.708;2022-09-27T10:24:00;3.55;;;1.40;;
31782;SDS011;18351;47.560;9.708;2022-09-27T10:26:34;7.03;;;1.40;;
31782;SDS011;18351;47.560;9.708;2022-09-27T10:31:46;5.00;;;1.60;;
31782;SDS011;18351;47.560;9.708;2022-09-27T10:37:06;5.57;;;1.40;;
31782;SDS011;18351;47.560;9.708;2022-09-27T10:39:41;6.22;;;1.15;;
31782;SDS011;18351;47.560;9.708;2022-09-27T10:44:56;4.88;;;1.60;;
31782;SDS011;18351;47.560;9.708;2022-09-27T10:47:22;3.80;;;1.52;;
31782;SDS011;18351;47.560;9.708;2022-09-27T10:49:50;5.70;;;1.30;;
31782;SDS011;18351;47.560;9.708;2022-09-27T10:52:20;5.55;;;1.90;;
31782;SDS011;18351;47.560;9.708;2022-09-27T10:54:51;4.03;;;1.65;;
31782;SDS011;18351;47.560;9.708;2022-09-27T10:57:18;3.42;;;1.35;;
31782;SDS011;18351;47.560;9.708;2022-09-27T10:59:50;6.43;;;1.33;;
31782;SDS011;18351;47.560;9.708;2022-09-27T11:02:21;2.63;;;1.00;;
31782;SDS011;18351;47.560;9.708;2022-09-27T11:05:02;7.28;;;2.35;;
31782;SDS011;18351;47.560;9.708;2022-09-27T11:13:56;5.00;;;1.75;;
31782;SDS011;18351;47.560;9.708;2022-09-27T11:16:35;2.90;;;0.98;;
31782;SDS011;18351;47.560;9.708;2022-09-27T11:22:03;5.22;;;1.73;;
31782;SDS011;18351;47.560;9.708;2022-09-27T11:24:56;3.25;;;1.60;;
31782;SDS011;18351;47.560;9.708;2022-09-27T11:30:19;3.22;;;1.48;;
31782;SDS011;18351;47.560;9.708;2022-09-27T11:49:13;0.85;;;0.85;;
31782;SDS011;18351;47.560;9.708;2022-09-27T11:59:47;3.38;;;1.23;;
31782;SDS011;18351;47.560;9.708;2022-09-27T12:05:15;5.78;;;1.10;;
31782;SDS011;18351;47.560;9.708;2022-09-27T12:10:45;4.20;;;1.67;;
31782;SDS011;18351;47.560;9.708;2022-09-27T12:13:14;1.33;;;0.90;;
31782;SDS011;18351;47.560;9.708;2022-09-27T12:15:53;2.25;;;1.15;;
31782;SDS011;18351;47.560;9.708;2022-09-27T12:18:25;2.03;;;1.00;;
31782;SDS011;18351;47.560;9.708;2022-09-27T12:20:58;1.38;;;0.65;;
31782;SDS011;18351;47.560;9.708;2022-09-27T12:26:18;2.13;;;1.30;;
31782;SDS011;18351;47.560;9.708;2022-09-27T12:28:49;2.22;;;1.35;;
31782;SDS011;18351;47.560;9.708;2022-09-27T12:31:39;2.53;;;1.08;;
31782;SDS011;18351;47.560;9.708;2022-09-27T12:37:19;3.88;;;0.95;;
31782;SDS011;18351;47.560;9.708;2022-09-27T12:42:24;0.85;;;0.80;;
31782;SDS011;18351;47.560;9.708;2022-09-27T12:44:54;2.45;;;1.00;;
31782;SDS011;18351;47.560;9.708;2022-09-27T12:47:27;3.60;;;1.10;;
31782;SDS011;18351;47.560;9.708;2022-09-27T12:52:57;2.55;;;1.30;;
31782;SDS011;18351;47.560;9.708;2022-09-27T13:01:06;1.35;;;0.80;;
31782;SDS011;18351;47.560;9.708;2022-09-27T13:04:03;3.00;;;1.27;;
31782;SDS011;18351;47.560;9.708;2022-09-27T13:12:25;1.33;;;0.77;;
31782;SDS011;18351;47.560;9.708;2022-09-27T13:23:01;1.88;;;1.27;;
31782;SDS011;18351;47.560;9.708;2022-09-27T13:25:57;2.08;;;1.23;;
31782;SDS011;18351;47.560;9.708;2022-09-27T13:30:55;3.78;;;1.40;;
31782;SDS011;18351;47.560;9.708;2022-09-27T13:33:28;1.60;;;1.15;;
31782;SDS011;18351;47.560;9.708;2022-09-27T13:38:52;2.15;;;1.10;;
31782;SDS011;18351;47.560;9.708;2022-09-27T13:41:53;1.10;;;1.00;;
31782;SDS011;18351;47.560;9.708;2022-09-27T13:52:56;3.10;;;1.58;;
31782;SDS011;18351;47.560;9.708;2022-09-27T13:55:37;2.28;;;1.20;;
31782;SDS011;18351;47.560;9.708;2022-09-27T14:00:50;5.25;;;1.75;;
31782;SDS011;18351;47.560;9.708;2022-09-27T14:03:28;1.52;;;0.90;;
31782;SDS011;18351;47.560;9.708;2022-09-27T14:05:56;4.65;;;1.40;;
31782;SDS011;18351;47.560;9.708;2022-09-27T14:08:31;5.95;;;1.63;;
31782;SDS011;18351;47.560;9.708;2022-09-27T14:11:00;9.82;;;7.78;;
31782;SDS011;18351;47.560;9.708;2022-09-27T14:13:27;3.80;;;3.45;;
31782;SDS011;18351;47.560;9.708;2022-09-27T14:16:01;1.95;;;1.13;;
31782;SDS011;18351;47.560;9.708;2022-09-27T14:18:28;5.18;;;1.60;;
31782;SDS011;18351;47.560;9.708;2022-09-27T14:21:06;1.75;;;1.10;;
31782;SDS011;18351;47.560;9.708;2022-09-27T14:23:42;2.42;;;1.35;;
31782;SDS011;18351;47.560;9.708;2022-09-27T14:26:20;3.25;;;1.35;;
31782;SDS011;18351;47.560;9.708;2022-09-27T14:28:50;2.08;;;1.27;;
31782;SDS011;18351;47.560;9.708;2022-09-27T14:31:20;2.38;;;1.00;;
31782;SDS011;18351;47.560;9.708;2022-09-27T14:33:48;1.88;;;1.05;;
31782;SDS011;18351;47.560;9.708;2022-09-27T14:36:25;3.88;;;1.17;;
31782;SDS011;18351;47.560;9.708;2022-09-27T14:39:13;3.20;;;1.50;;
31782;SDS011;18351;47.560;9.708;2022-09-27T14:41:45;2.80;;;1.02;;
31782;SDS011;18351;47.560;9.708;2022-09-27T14:44:15;2.58;;;1.60;;
31782;SDS011;18351;47.560;9.708;2022-09-27T14:46:43;2.30;;;1.23;;
31782;SDS011;18351;47.560;9.708;2022-09-27T14:49:10;1.75;;;0.80;;
31782;SDS011;18351;47.560;9.708;2022-09-27T14:51:43;4.00;;;1.00;;
31782;SDS011;18351;47.560;9.708;2022-09-27T14:54:23;3.38;;;1.08;;
31782;SDS011;18351;47.560;9.708;2022-09-27T14:56:51;4.45;;;1.08;;
31782;SDS011;18351;47.560;9.708;2022-09-27T14:59:26;1.70;;;0.82;;
31782;SDS011;18351;47.560;9.708;2022-09-27T15:01:59;3.92;;;1.10;;
31782;SDS011;18351;47.560;9.708;2022-09-27T15:04:28;1.92;;;0.90;;
31782;SDS011;18351;47.560;9.708;2022-09-27T15:06:56;2.70;;;1.25;;
31782;SDS011;18351;47.560;9.708;2022-09-27T15:09:22;2.83;;;1.60;;
31782;SDS011;18351;47.560;9.708;2022-09-27T15:11:56;1.42;;;1.33;;
31782;SDS011;18351;47.560;9.708;2022-09-27T15:14:29;1.55;;;0.85;;
31782;SDS011;18351;47.560;9.708;2022-09-27T15:16:57;8.23;;;1.00;;
31782;SDS011;18351;47.560;9.708;2022-09-27T15:19:29;1.25;;;0.60;;
31782;SDS011;18351;47.560;9.708;2022-09-27T15:21:55;2.80;;;0.90;;
31782;SDS011;18351;47.560;9.708;2022-09-27T15:24:38;1.05;;;0.82;;
31782;SDS011;18351;47.560;9.708;2022-09-27T15:29:41;3.28;;;0.80;;
31782;SDS011;18351;47.560;9.708;2022-09-27T15:32:16;0.95;;;0.85;;
31782;SDS011;18351;47.560;9.708;2022-09-27T15:34:44;0.93;;;0.85;;
31782;SDS011;18351;47.560;9.708;2022-09-27T15:37:26;1.88;;;0.85;;
31782;SDS011;18351;47.560;9.708;2022-09-27T15:43:02;1.42;;;1.33;;
31782;SDS011;18351;47.560;9.708;2022-09-27T15:45:32;2.25;;;1.15;;
31782;SDS011;18351;47.560;9.708;2022-09-27T15:48:07;2.88;;;1.27;;
31782;SDS011;18351;47.560;9.708;2022-09-27T15:50:38;3.78;;;1.20;;
31782;SDS011;18351;47.560;9.708;2022-09-27T15:53:05;1.42;;;1.33;;
31782;SDS011;18351;47.560;9.708;2022-09-27T15:55:32;2.83;;;1.10;;
31782;SDS011;18351;47.560;9.708;2022-09-27T15:58:00;4.30;;;1.20;;
31782;SDS011;18351;47.560;9.708;2022-09-27T16:00:29;3.40;;;1.60;;
31782;SDS011;18351;47.560;9.708;2022-09-27T16:02:55;5.38;;;2.10;;
31782;SDS011;18351;47.560;9.708;2022-09-27T16:05:21;4.40;;;2.10;;
31782;SDS011;18351;47.560;9.708;2022-09-27T16:07:48;1.45;;;1.20;;
31782;SDS011;18351;47.560;9.708;2022-09-27T16:10:19;2.15;;;1.25;;
31782;SDS011;18351;47.560;9.708;2022-09-27T16:12:56;3.00;;;2.00;;
31782;SDS011;18351;47.560;9.708;2022-09-27T16:15:22;3.83;;;1.33;;
31782;SDS011;18351;47.560;9.708;2022-09-27T16:17:47;2.58;;;1.60;;
31782;SDS011;18351;47.560;9.708;2022-09-27T16:20:20;4.80;;;1.95;;
31782;SDS011;18351;47.560;9.708;2022-09-27T16:22:49;3.83;;;1.60;;
31782;SDS011;18351;47.560;9.708;2022-09-27T16:25:15;2.63;;;1.83;;
31782;SDS011;18351;47.560;9.708;2022-09-27T16:27:41;3.13;;;2.60;;
31782;SDS011;18351;47.560;9.708;2022-09-27T16:30:07;2.33;;;1.65;;
31782;SDS011;18351;47.560;9.708;2022-09-27T16:32:33;6.97;;;2.97;;
31782;SDS011;18351;47.560;9.708;2022-09-27T16:35:08;5.60;;;2.20;;
31782;SDS011;18351;47.560;9.708;2022-09-27T16:37:34;6.15;;;2.90;;
31782;SDS011;18351;47.560;9.708;2022-09-27T16:40:01;3.53;;;3.15;;
31782;SDS011;18351;47.560;9.708;2022-09-27T16:42:27;4.15;;;2.22;;
31782;SDS011;18351;47.560;9.708;2022-09-27T16:44:52;8.52;;;4.63;;
31782;SDS011;18351;47.560;9.708;2022-09-27T16:47:18;4.00;;;2.70;;
31782;SDS011;18351;47.560;9.708;2022-09-27T16:49:44;2.90;;;2.30;;
31782;SDS011;18351;47.560;9.708;2022-09-27T16:52:36;3.22;;;2.05;;
31782;SDS011;18351;47.560;9.708;2022-09-27T16:55:01;3.42;;;2.05;;
31782;SDS011;18351;47.560;9.708;2022-09-27T16:57:27;5.43;;;1.92;;
31782;SDS011;18351;47.560;9.708;2022-09-27T16:59:53;4.72;;;2.38;;
31782;SDS011;18351;47.560;9.708;2022-09-27T17:02:22;4.40;;;2.80;;
31782;SDS011;18351;47.560;9.708;2022-09-27T17:04:48;11.90;;;6.47;;
31782;SDS011;18351;47.560;9.708;2022-09-27T17:07:14;6.05;;;3.38;;
31782;SDS011;18351;47.560;9.708;2022-09-27T17:09:40;16.42;;;9.60;;
31782;SDS011;18351;47.560;9.708;2022-09-27T17:12:06;5.63;;;2.85;;
31782;SDS011;18351;47.560;9.708;2022-09-27T17:14:31;3.78;;;2.38;;
31782;SDS011;18351;47.560;9.708;2022-09-27T17:16:57;5.65;;;3.00;;
31782;SDS011;18351;47.560;9.708;2022-09-27T17:19:23;3.08;;;2.47;;
31782;SDS011;18351;47.560;9.708;2022-09-27T17:21:48;4.85;;;2.60;;
31782;SDS011;18351;47.560;9.708;2022-09-27T17:24:15;2.70;;;2.25;;
31782;SDS011;18351;47.560;9.708;2022-09-27T17:26:41;4.50;;;2.35;;
31782;SDS011;18351;47.560;9.708;2022-09-27T17:29:10;6.15;;;3.25;;
31782;SDS011;18351;47.560;9.708;2022-09-27T17:31:37;4.70;;;1.92;;
31782;SDS011;18351;47.560;9.708;2022-09-27T17:34:04;3.42;;;2.53;;
31782;SDS011;18351;47.560;9.708;2022-09-27T17:36:31;5.95;;;2.15;;
31782;SDS011;18351;47.560;9.708;2022-09-27T17:38:58;3.72;;;1.98;;
31782;SDS011;18351;47.560;9.708;2022-09-27T17:41:25;2.33;;;2.00;;
31782;SDS011;18351;47.560;9.708;2022-09-27T17:43:55;2.80;;;1.70;;
31782;SDS011;18351;47.560;9.708;2022-09-27T17:46:26;3.67;;;1.75;;
31782;SDS011;18351;47.560;9.708;2022-09-27T17:48:56;3.92;;;2.85;;
31782;SDS011;18351;47.560;9.708;2022-09-27T17:51:40;2.53;;;0.98;;
31782;SDS011;18351;47.560;9.708;2022-09-27T17:54:07;5.00;;;2.10;;
31782;SDS011;18351;47.560;9.708;2022-09-27T17:56:41;5.20;;;2.35;;
31782;SDS011;18351;47.560;9.708;2022-09-27T17:59:08;2.47;;;1.38;;
31782;SDS011;18351;47.560;9.708;2022-09-27T18:01:34;2.17;;;1.80;;
31782;SDS011;18351;47.560;9.708;2022-09-27T18:04:04;7.05;;;5.35;;
31782;SDS011;18351;47.560;9.708;2022-09-27T18:06:33;1.60;;;1.50;;
31782;SDS011;18351;47.560;9.708;2022-09-27T18:09:04;2.72;;;1.48;;
31782;SDS011;18351;47.560;9.708;2022-09-27T18:11:32;6.88;;;5.30;;
31782;SDS011;18351;47.560;9.708;2022-09-27T18:13:59;7.20;;;6.57;;